Time;durP1;ratioP1;P1;durP2;ratioP2;P2;SDS_P1;SDS_P2;PMS_P1;PMS_P2;Temp;Humidity;BMP_temperature;BMP_pressure;BME280_temperature;BME280_humidity;BME280_pressure;Samples;Min_cycle;Max_cycle;Signal;HPM_P1;HPM_P2
2022/03/30 00:01:00;;;;;;;;;;;5.10;99.90;;;;;;5024791;28;19932;-49
2022/03/30 00:03:25;;;;;;;;;;;5.10;99.90;;;;;;5016499;28;19952;-55
2022/03/30 00:05:51;;;;;;;;;;;5.10;99.90;;;;;;5014447;28;19937;-53
2022/03/30 00:08:17;;;;;;;;;;;5.10;99.90;;;;;;5026791;28;19976;-53
2022/03/30 00:10:42;;;;;;;;;;;5.10;99.90;;;;;;5024918;28;19925;-52
2022/03/30 00:13:10;;;;;;;;;;;5.00;99.90;;;;;;5022305;28;19925;-53
2022/03/30 00:15:36;;;;;;;;;;;5.10;99.90;;;;;;5022106;28;19926;-54
2022/03/30 00:18:01;;;;;;;;;;;5.10;99.90;;;;;;5024097;28;19944;-54
2022/03/30 00:20:27;;;;;;;;;;;5.00;99.90;;;;;;5029265;28;20432;-51
2022/03/30 00:22:52;;;;;;;;;;;5.10;99.90;;;;;;5023168;28;20343;-54
2022/03/30 00:25:18;;;;;;;;;;;5.10;99.90;;;;;;5019917;28;19925;-51
2022/03/30 00:27:46;;;;;;;;;;;5.10;99.90;;;;;;5016133;28;19972;-52
2022/03/30 00:30:12;;;;;;;;;;;5.00;99.90;;;;;;5019810;28;19933;-51
2022/03/30 00:32:38;;;;;;;;;;;5.00;99.90;;;;;;5023054;28;19931;-53
2022/03/30 00:35:04;;;;;;;;;;;4.90;99.90;;;;;;5022161;28;19925;-51
2022/03/30 00:37:30;;;;;;;;;;;4.90;99.90;;;;;;5004193;28;19929;-51
2022/03/30 00:39:55;;;;;;;;;;;4.90;99.90;;;;;;5020924;28;20569;-52
2022/03/30 00:42:22;;;;;;;;;;;4.80;99.90;;;;;;5019396;28;19926;-53
2022/03/30 00:44:48;;;;;;;;;;;4.80;99.90;;;;;;5019220;28;19998;-54
2022/03/30 00:47:21;;;;;;;;;;;4.80;99.90;;;;;;5017597;28;19930;-52
2022/03/30 00:49:46;;;;;;;;;;;4.70;99.90;;;;;;5022081;28;19925;-52
2022/03/30 00:52:12;;;;;;;;;;;4.70;99.90;;;;;;5020947;28;19991;-51
2022/03/30 00:54:39;;;;;;;;;;;4.70;99.90;;;;;;5013077;28;19945;-52
2022/03/30 00:57:08;;;;;;;;;;;4.60;99.90;;;;;;5021885;28;20001;-55
2022/03/30 00:59:33;;;;;;;;;;;4.50;99.90;;;;;;5022372;28;20019;-56
2022/03/30 01:01:59;;;;;;;;;;;4.50;99.90;;;;;;5019919;28;20029;-54
2022/03/30 01:04:28;;;;;;;;;;;4.50;99.90;;;;;;5019928;28;19979;-55
2022/03/30 01:06:53;;;;;;;;;;;4.70;99.90;;;;;;5021683;28;19936;-50
2022/03/30 01:09:20;;;;;;;;;;;4.60;99.90;;;;;;5022378;28;19933;-51
2022/03/30 01:11:47;;;;;;;;;;;4.40;99.90;;;;;;5017349;28;20095;-51
2022/03/30 01:14:13;;;;;;;;;;;4.40;99.90;;;;;;5023262;28;19976;-51
2022/03/30 01:16:39;;;;;;;;;;;4.40;99.90;;;;;;5007148;28;19991;-52
2022/03/30 01:19:06;;;;;;;;;;;4.50;99.90;;;;;;5018054;28;19925;-54
2022/03/30 01:21:32;;;;;;;;;;;4.30;99.90;;;;;;5026716;28;19925;-55
2022/03/30 01:23:57;;;;;;;;;;;4.50;99.90;;;;;;5023327;28;19933;-52
2022/03/30 01:26:25;;;;;;;;;;;4.40;99.90;;;;;;5022268;28;19947;-55
2022/03/30 01:28:51;;;;;;;;;;;4.30;99.90;;;;;;5027547;28;19932;-54
2022/03/30 01:34:00;;;;;;;;;;;4.30;99.90;;;;;;5016615;28;20295;-53
2022/03/30 01:36:26;;;;;;;;;;;4.20;99.90;;;;;;5022374;28;19925;-50
2022/03/30 01:38:51;;;;;;;;;;;4.20;99.90;;;;;;5014679;28;20418;-54
2022/03/30 01:41:17;;;;;;;;;;;4.10;99.90;;;;;;5018335;28;19929;-55
2022/03/30 01:43:42;;;;;;;;;;;4.20;99.90;;;;;;5020178;28;19933;-53
2022/03/30 01:46:08;;;;;;;;;;;4.10;99.90;;;;;;5027531;28;19934;-51
2022/03/30 01:48:33;;;;;;;;;;;4.30;99.90;;;;;;5022812;28;19925;-51
2022/03/30 01:50:59;;;;;;;;;;;4.10;99.90;;;;;;5066126;22;20029;-73
2022/03/30 01:53:27;;;;;;;;;;;4.10;99.90;;;;;;5015379;28;22265;-73
2022/03/30 01:55:52;;;;;;;;;;;4.10;99.90;;;;;;5016664;28;19926;-73
2022/03/30 01:58:18;;;;;;;;;;;;;;;;;;5026074;28;19947;-73
2022/03/30 02:00:45;;;;;;;;;;;3.90;99.90;;;;;;4993491;28;20377;-72
2022/03/30 02:03:11;;;;;;;;;;;3.90;99.90;;;;;;5010495;28;19932;-72
2022/03/30 02:05:36;;;;;;;;;;;3.90;99.90;;;;;;5017901;28;20023;-72
2022/03/30 02:08:02;;;;;;;;;;;3.90;99.90;;;;;;5016989;28;20028;-72
2022/03/30 02:10:28;;;;;;;;;;;3.90;99.90;;;;;;5016542;28;19932;-73
2022/03/30 02:12:54;;;;;;;;;;;3.90;99.90;;;;;;5012224;28;19932;-72
2022/03/30 02:15:19;;;;;;;;;;;3.90;99.90;;;;;;5016866;28;19925;-72
2022/03/30 02:17:44;;;;;;;;;;;3.90;99.90;;;;;;5016029;28;19925;-72
2022/03/30 02:20:11;;;;;;;;;;;3.80;99.90;;;;;;5020254;28;19925;-73
2022/03/30 02:22:37;;;;;;;;;;;3.80;99.90;;;;;;5017199;28;20414;-72
2022/03/30 02:25:03;;;;;;;;;;;3.70;99.90;;;;;;5027992;28;19991;-74
2022/03/30 02:27:28;;;;;;;;;;;3.70;99.90;;;;;;5017989;28;20381;-73
2022/03/30 02:29:54;;;;;;;;;;;3.70;99.90;;;;;;5016332;28;19933;-73
2022/03/30 02:32:20;;;;;;;;;;;3.70;99.90;;;;;;5014571;28;19929;-73
2022/03/30 02:34:46;;;;;;;;;;;3.70;99.90;;;;;;5011129;28;19933;-72
2022/03/30 02:37:12;;;;;;;;;;;3.70;99.90;;;;;;5013978;28;19926;-72
2022/03/30 02:39:38;;;;;;;;;;;3.70;99.90;;;;;;5012879;28;19984;-72
2022/03/30 02:42:07;;;;;;;;;;;3.70;99.90;;;;;;4992480;28;19925;-72
2022/03/30 02:44:33;;;;;;;;;;;3.70;99.90;;;;;;5011516;28;19932;-72
2022/03/30 02:46:58;;;;;;;;;;;3.70;99.90;;;;;;5014509;28;19925;-72
2022/03/30 02:49:24;;;;;;;;;;;3.70;99.90;;;;;;5017440;28;20020;-72
2022/03/30 02:51:50;;;;;;;;;;;3.80;99.90;;;;;;5007741;28;19925;-73
2022/03/30 02:54:15;;;;;;;;;;;3.80;99.90;;;;;;5010974;28;19925;-72
2022/03/30 02:56:40;;;;;;;;;;;3.90;99.90;;;;;;5010890;28;20419;-72
2022/03/30 02:59:06;;;;;;;;;;;4.00;99.90;;;;;;5012726;28;19959;-72
2022/03/30 03:01:32;;;;;;;;;;;4.00;99.90;;;;;;5012890;28;19961;-72
2022/03/30 03:03:57;;;;;;;;;;;4.10;99.90;;;;;;5010049;28;19929;-72
2022/03/30 03:06:23;;;;;;;;;;;4.20;99.90;;;;;;5010907;28;19925;-72
2022/03/30 03:08:49;;;;;;;;;;;4.20;99.90;;;;;;5012089;28;19925;-72
2022/03/30 03:11:15;;;;;;;;;;;4.30;99.90;;;;;;5010012;28;19991;-72
2022/03/30 03:13:40;;;;;;;;;;;4.30;99.90;;;;;;5013639;28;19934;-73
2022/03/30 03:16:06;;;;;;;;;;;4.40;99.90;;;;;;5012775;28;19929;-72
2022/03/30 03:18:31;;;;;;;;;;;4.30;99.90;;;;;;5010730;28;20461;-72
2022/03/30 03:20:57;;;;;;;;;;;4.40;99.90;;;;;;5011864;28;19929;-72
2022/03/30 03:23:23;;;;;;;;;;;4.40;99.90;;;;;;5012053;28;20300;-72
2022/03/30 03:25:49;;;;;;;;;;;4.40;99.90;;;;;;5010972;28;19929;-72
2022/03/30 03:28:15;;;;;;;;;;;4.40;99.90;;;;;;5011526;28;19933;-72
2022/03/30 03:30:41;;;;;;;;;;;4.40;99.90;;;;;;5011880;28;19926;-72
2022/03/30 03:33:07;;;;;;;;;;;4.30;99.90;;;;;;5010789;28;19933;-73
2022/03/30 03:35:32;;;;;;;;;;;4.30;99.90;;;;;;5015792;28;19941;-72
2022/03/30 03:37:58;;;;;;;;;;;4.20;99.90;;;;;;5012599;28;19932;-72
2022/03/30 03:40:24;;;;;;;;;;;4.20;99.90;;;;;;5011295;28;19932;-72
2022/03/30 03:42:50;;;;;;;;;;;4.20;99.90;;;;;;5019251;28;20292;-73
2022/03/30 03:45:16;;;;;;;;;;;4.20;99.90;;;;;;5011366;28;20406;-72
2022/03/30 03:47:42;;;;;;;;;;;4.20;99.90;;;;;;5010161;28;20012;-72
2022/03/30 03:50:08;;;;;;;;;;;4.20;99.90;;;;;;5009478;28;20015;-72
2022/03/30 03:52:33;;;;;;;;;;;4.20;99.90;;;;;;5010914;28;19925;-72
2022/03/30 03:54:59;;;;;;;;;;;4.30;99.90;;;;;;5012230;28;19971;-72
2022/03/30 03:57:25;;;;;;;;;;;4.30;99.90;;;;;;4991689;28;19933;-73
2022/03/30 03:59:51;;;;;;;;;;;4.30;99.90;;;;;;4995696;28;19926;-73
2022/03/30 04:02:16;;;;;;;;;;;4.30;99.90;;;;;;5003140;28;19933;-73
2022/03/30 04:04:44;;;;;;;;;;;4.30;99.90;;;;;;5005641;28;19979;-73
2022/03/30 04:07:09;;;;;;;;;;;4.30;99.90;;;;;;5003879;28;19992;-72
2022/03/30 04:09:35;;;;;;;;;;;4.30;99.90;;;;;;5005973;28;20389;-73
2022/03/30 04:12:00;;;;;;;;;;;4.30;99.90;;;;;;5003875;28;19932;-74
2022/03/30 04:14:25;;;;;;;;;;;4.30;99.90;;;;;;4987688;28;19930;-74
2022/03/30 04:16:51;;;;;;;;;;;4.40;99.90;;;;;;5004278;28;21903;-72
2022/03/30 04:19:16;;;;;;;;;;;4.40;99.90;;;;;;5002168;28;20353;-72
2022/03/30 04:21:42;;;;;;;;;;;4.50;99.90;;;;;;5003650;28;19930;-72
2022/03/30 04:24:08;;;;;;;;;;;4.50;99.90;;;;;;4988875;28;20370;-72
2022/03/30 04:26:34;;;;;;;;;;;4.50;99.90;;;;;;4987103;28;20064;-72
2022/03/30 04:28:59;;;;;;;;;;;4.60;99.90;;;;;;5004651;28;21707;-73
2022/03/30 04:31:25;;;;;;;;;;;4.60;99.90;;;;;;5004918;28;19934;-74
2022/03/30 04:33:50;;;;;;;;;;;4.60;99.90;;;;;;5003952;28;19926;-72
2022/03/30 04:36:16;;;;;;;;;;;4.70;99.90;;;;;;5003874;28;19948;-72
2022/03/30 04:38:41;;;;;;;;;;;4.70;99.90;;;;;;4986803;28;19932;-72
2022/03/30 04:41:07;;;;;;;;;;;4.70;99.90;;;;;;5002094;28;19929;-72
2022/03/30 04:43:32;;;;;;;;;;;4.70;99.90;;;;;;5007503;28;20416;-73
2022/03/30 04:45:58;;;;;;;;;;;4.80;99.90;;;;;;5009139;28;19964;-72
2022/03/30 04:48:23;;;;;;;;;;;4.80;99.90;;;;;;5006139;28;20016;-71
2022/03/30 04:50:49;;;;;;;;;;;4.80;99.90;;;;;;5000348;28;19979;-71
2022/03/30 04:53:15;;;;;;;;;;;4.80;99.90;;;;;;5005944;28;19926;-72
2022/03/30 04:55:40;;;;;;;;;;;4.80;99.90;;;;;;5009692;28;19925;-73
2022/03/30 04:58:06;;;;;;;;;;;4.80;99.90;;;;;;5002936;28;20028;-72
2022/03/30 05:00:32;;;;;;;;;;;4.80;99.90;;;;;;5006599;28;19929;-74
2022/03/30 05:02:57;;;;;;;;;;;4.80;99.90;;;;;;5007468;28;19969;-74
2022/03/30 05:05:23;;;;;;;;;;;4.90;99.90;;;;;;5009152;28;19980;-74
2022/03/30 05:07:48;;;;;;;;;;;4.90;99.90;;;;;;5011564;28;19925;-74
2022/03/30 05:10:14;;;;;;;;;;;4.80;99.90;;;;;;5010341;28;20262;-73
2022/03/30 05:12:40;;;;;;;;;;;4.90;99.90;;;;;;5007890;28;19929;-73
2022/03/30 05:15:06;;;;;;;;;;;4.90;99.90;;;;;;5012373;28;19955;-73
2022/03/30 05:17:32;;;;;;;;;;;4.90;99.90;;;;;;5006457;28;19988;-73
2022/03/30 05:19:58;;;;;;;;;;;4.90;99.90;;;;;;5008625;28;19929;-74
2022/03/30 05:22:24;;;;;;;;;;;4.90;99.90;;;;;;5008979;28;19926;-72
2022/03/30 05:24:50;;;;;;;;;;;5.00;99.90;;;;;;5010813;28;19926;-72
2022/03/30 05:27:15;;;;;;;;;;;5.00;99.90;;;;;;5009987;28;20075;-72
2022/03/30 05:29:40;;;;;;;;;;;5.00;99.90;;;;;;5011863;28;19932;-72
2022/03/30 05:32:07;;;;;;;;;;;5.10;99.90;;;;;;5009985;28;20015;-72
2022/03/30 05:34:32;;;;;;;;;;;5.10;99.90;;;;;;5008797;28;19932;-72
2022/03/30 05:36:58;;;;;;;;;;;5.10;99.90;;;;;;5011951;28;19933;-72
2022/03/30 05:39:24;;;;;;;;;;;5.10;99.90;;;;;;5012541;28;20044;-72
2022/03/30 05:41:50;;;;;;;;;;;5.10;99.90;;;;;;5011744;28;19988;-72
2022/03/30 05:44:15;;;;;;;;;;;5.10;99.90;;;;;;5012302;28;19925;-73
2022/03/30 05:46:41;;;;;;;;;;;5.20;99.90;;;;;;5012183;28;19926;-73
2022/03/30 05:49:06;;;;;;;;;;;5.20;99.90;;;;;;5010562;28;20027;-73
2022/03/30 05:51:32;;;;;;;;;;;5.20;99.90;;;;;;5008181;28;20118;-73
2022/03/30 05:53:58;;;;;;;;;;;5.30;99.90;;;;;;5011264;28;19932;-73
2022/03/30 05:56:59;;;;;;;;;;;5.30;99.90;;;;;;5006651;28;19934;-72
2022/03/30 05:59:09;;;;;;;;;;;5.30;99.90;;;;;;5003215;28;19980;-73
2022/03/30 06:01:35;;;;;;;;;;;5.30;99.90;;;;;;5006998;28;19926;-73
2022/03/30 06:04:01;;;;;;;;;;;5.40;99.90;;;;;;4988816;28;19933;-72
2022/03/30 06:06:26;;;;;;;;;;;5.40;99.90;;;;;;5006597;28;19936;-73
2022/03/30 06:08:52;;;;;;;;;;;5.50;99.90;;;;;;5003688;28;19983;-74
2022/03/30 06:11:18;;;;;;;;;;;5.50;99.90;;;;;;4999630;28;20360;-72
2022/03/30 06:13:44;;;;;;;;;;;5.50;99.90;;;;;;5009510;28;19980;-72
2022/03/30 06:16:10;;;;;;;;;;;5.50;99.90;;;;;;4987807;28;19926;-73
2022/03/30 06:18:35;;;;;;;;;;;5.50;99.90;;;;;;5000031;28;20447;-70
2022/03/30 06:21:01;;;;;;;;;;;5.50;99.90;;;;;;4982758;28;19967;-71
2022/03/30 06:23:27;;;;;;;;;;;5.40;99.90;;;;;;5001789;28;20019;-72
2022/03/30 06:25:53;;;;;;;;;;;5.40;99.90;;;;;;5006694;28;20436;-69
2022/03/30 06:28:22;;;;;;;;;;;5.40;99.90;;;;;;4988727;28;20293;-72
2022/03/30 06:30:48;;;;;;;;;;;5.50;99.90;;;;;;5007221;28;20016;-72
2022/03/30 06:33:14;;;;;;;;;;;5.40;99.90;;;;;;5007440;28;20028;-74
2022/03/30 06:35:40;;;;;;;;;;;5.40;99.90;;;;;;5005588;28;20312;-73
2022/03/30 06:38:05;;;;;;;;;;;5.50;99.90;;;;;;5004550;28;19925;-75
2022/03/30 06:40:32;;;;;;;;;;;5.50;99.90;;;;;;4981416;28;19925;-72
2022/03/30 06:43:00;;;;;;;;;;;5.50;99.90;;;;;;5011539;28;19929;-72
2022/03/30 06:45:26;;;;;;;;;;;5.60;99.90;;;;;;5014727;28;19929;-74
2022/03/30 06:47:52;;;;;;;;;;;5.60;99.90;;;;;;4985662;28;19971;-71
2022/03/30 06:50:19;;;;;;;;;;;5.60;99.90;;;;;;5006597;28;19953;-71
2022/03/30 06:52:48;;;;;;;;;;;5.60;99.90;;;;;;5008401;28;19957;-72
2022/03/30 06:55:14;;;;;;;;;;;5.70;99.90;;;;;;5014473;28;20008;-71
2022/03/30 06:57:40;;;;;;;;;;;5.70;99.90;;;;;;5013054;28;20411;-71
2022/03/30 07:00:06;;;;;;;;;;;5.80;99.90;;;;;;5011399;28;19941;-71
2022/03/30 07:02:32;;;;;;;;;;;5.80;99.90;;;;;;4991280;28;19926;-71
2022/03/30 07:04:58;;;;;;;;;;;5.90;99.90;;;;;;5014068;28;19926;-71
2022/03/30 07:10:17;;;;;;;;;;;5.90;99.90;;;;;;5011001;28;19926;-72
2022/03/30 07:12:43;;;;;;;;;;;5.80;99.90;;;;;;4988015;28;19936;-71
2022/03/30 07:15:09;;;;;;;;;;;5.90;99.90;;;;;;5004229;28;19925;-71
2022/03/30 07:17:42;;;;;;;;;;;6.10;99.90;;;;;;5001480;28;20063;-71
2022/03/30 07:20:09;;;;;;;;;;;6.20;99.90;;;;;;5005675;28;19934;-71
2022/03/30 07:22:35;;;;;;;;;;;6.50;99.90;;;;;;4996824;28;20409;-71
2022/03/30 07:25:01;;;;;;;;;;;6.60;99.90;;;;;;5000599;28;19945;-71
2022/03/30 07:27:26;;;;;;;;;;;6.80;99.90;;;;;;4997950;28;19956;-71
2022/03/30 07:29:52;;;;;;;;;;;6.70;99.90;;;;;;5003641;28;21026;-71
2022/03/30 07:32:19;;;;;;;;;;;6.90;99.90;;;;;;5003974;28;19926;-72
2022/03/30 07:34:45;;;;;;;;;;;6.90;99.90;;;;;;5008818;28;20073;-71
2022/03/30 07:37:10;;;;;;;;;;;6.90;99.90;;;;;;5004051;28;20020;-71
2022/03/30 07:39:36;;;;;;;;;;;7.10;99.90;;;;;;4996970;28;19929;-71
2022/03/30 07:42:01;;;;;;;;;;;7.00;99.90;;;;;;4989968;28;19929;-71
2022/03/30 07:44:27;;;;;;;;;;;7.00;99.90;;;;;;4978499;28;20324;-71
2022/03/30 07:46:52;;;;;;;;;;;7.00;99.90;;;;;;4993206;28;21894;-71
2022/03/30 07:49:18;;;;;;;;;;;7.00;99.90;;;;;;4995683;28;19926;-71
2022/03/30 07:51:43;;;;;;;;;;;6.90;99.90;;;;;;5009749;28;19926;-70
2022/03/30 07:54:09;;;;;;;;;;;6.80;99.90;;;;;;5011758;28;20381;-71
2022/03/30 07:56:34;;;;;;;;;;;6.90;99.90;;;;;;5004710;28;19925;-71
2022/03/30 07:59:00;;;;;;;;;;;7.00;99.90;;;;;;4995247;28;19926;-71
2022/03/30 08:01:26;;;;;;;;;;;7.00;99.90;;;;;;5001620;28;20391;-71
2022/03/30 08:03:51;;;;;;;;;;;7.00;99.90;;;;;;5003535;28;19977;-71
2022/03/30 08:06:17;;;;;;;;;;;7.10;99.90;;;;;;4990911;28;19953;-71
2022/03/30 08:08:43;;;;;;;;;;;7.30;99.90;;;;;;5010938;28;19925;-71
2022/03/30 08:11:09;;;;;;;;;;;7.50;99.90;;;;;;5007088;28;19929;-71
2022/03/30 08:13:35;;;;;;;;;;;7.50;99.90;;;;;;5006614;28;19987;-71
2022/03/30 08:16:00;;;;;;;;;;;7.50;99.90;;;;;;5009883;28;19929;-73
2022/03/30 08:18:26;;;;;;;;;;;7.50;99.90;;;;;;4994586;28;19937;-71
2022/03/30 08:23:36;;;;;;;;;;;7.50;99.90;;;;;;4989578;28;19925;-72
2022/03/30 08:26:02;;;;;;;;;;;7.50;99.90;;;;;;4978588;28;19926;-71
2022/03/30 08:28:28;;;;;;;;;;;7.30;99.90;;;;;;5008968;28;19926;-72
2022/03/30 08:30:53;;;;;;;;;;;7.10;99.90;;;;;;5011103;28;20016;-71
2022/03/30 08:33:23;;;;;;;;;;;7.20;99.90;;;;;;5014762;28;19982;-72
2022/03/30 08:35:52;;;;;;;;;;;7.20;99.90;;;;;;5007559;28;19933;-72
2022/03/30 08:38:17;;;;;;;;;;;7.20;99.90;;;;;;5008780;28;20019;-72
2022/03/30 08:40:43;;;;;;;;;;;7.10;99.90;;;;;;5009360;28;20012;-72
2022/03/30 08:43:09;;;;;;;;;;;7.00;99.90;;;;;;5006805;28;19984;-73
2022/03/30 08:45:34;;;;;;;;;;;6.80;99.90;;;;;;5008075;28;19983;-73
2022/03/30 08:48:00;;;;;;;;;;;6.80;99.90;;;;;;5009997;28;20437;-72
2022/03/30 08:50:26;;;;;;;;;;;6.80;99.90;;;;;;5009811;28;19952;-72
2022/03/30 08:52:55;;;;;;;;;;;6.80;99.90;;;;;;5007329;28;19926;-72
2022/03/30 08:55:20;;;;;;;;;;;6.90;99.90;;;;;;5010292;28;19925;-73
2022/03/30 08:57:45;;;;;;;;;;;6.90;99.90;;;;;;5008122;28;19979;-72
2022/03/30 09:00:16;;;;;;;;;;;7.00;99.90;;;;;;4994652;28;19932;-72
2022/03/30 09:02:43;;;;;;;;;;;7.10;99.90;;;;;;4990739;28;19930;-72
2022/03/30 09:05:16;;;;;;;;;;;7.10;99.90;;;;;;5007241;28;19933;-72
2022/03/30 09:07:43;;;;;;;;;;;7.30;99.90;;;;;;5006638;28;19948;-72
2022/03/30 09:10:12;;;;;;;;;;;7.30;99.90;;;;;;5010627;28;19926;-73
2022/03/30 09:12:38;;;;;;;;;;;7.40;99.90;;;;;;5005082;28;19933;-73
2022/03/30 09:15:04;;;;;;;;;;;7.50;99.90;;;;;;5007885;28;19925;-72
2022/03/30 09:17:36;;;;;;;;;;;7.70;99.90;;;;;;5010777;28;20055;-73
2022/03/30 09:20:05;;;;;;;;;;;7.60;99.90;;;;;;5010658;28;19925;-73
2022/03/30 09:22:32;;;;;;;;;;;7.60;99.90;;;;;;5008519;28;19926;-73
2022/03/30 09:24:57;;;;;;;;;;;7.50;99.90;;;;;;4990295;28;19937;-73
2022/03/30 09:27:24;;;;;;;;;;;7.60;99.90;;;;;;5009045;28;20068;-73
2022/03/30 09:29:50;;;;;;;;;;;7.50;99.90;;;;;;5010091;28;19933;-73
2022/03/30 09:32:15;;;;;;;;;;;7.60;99.90;;;;;;5012000;28;19926;-73
2022/03/30 09:34:48;;;;;;;;;;;7.50;99.90;;;;;;5011972;28;19925;-79
2022/03/30 09:37:14;;;;;;;;;;;7.60;99.90;;;;;;4976204;28;19984;-72
2022/03/30 09:39:40;;;;;;;;;;;7.70;99.90;;;;;;5017759;28;20019;-73
2022/03/30 09:42:08;;;;;;;;;;;7.70;99.90;;;;;;5008447;28;19940;-73
2022/03/30 09:44:45;;;;;;;;;;;7.70;99.90;;;;;;4981271;28;19926;-73
2022/03/30 09:47:11;;;;;;;;;;;7.90;99.90;;;;;;5010236;28;19926;-72
2022/03/30 09:49:40;;;;;;;;;;;8.00;99.90;;;;;;5000407;28;20384;-72
2022/03/30 09:52:14;;;;;;;;;;;8.10;99.90;;;;;;5003839;28;19964;-72
2022/03/30 09:54:44;;;;;;;;;;;8.30;99.90;;;;;;5005374;28;19936;-72
2022/03/30 09:57:14;;;;;;;;;;;8.30;99.90;;;;;;5001881;28;20397;-72
2022/03/30 09:59:58;;;;;;;;;;;8.40;99.90;;;;;;5003818;28;20440;-73
2022/03/30 10:02:24;;;;;;;;;;;8.50;99.90;;;;;;4987597;28;19933;-72
2022/03/30 10:04:50;;;;;;;;;;;8.50;99.90;;;;;;5007750;28;19999;-72
2022/03/30 10:07:16;;;;;;;;;;;8.50;99.90;;;;;;5004260;28;19961;-70
2022/03/30 10:09:42;;;;;;;;;;;8.40;99.90;;;;;;5004056;28;20447;-72
2022/03/30 10:12:08;;;;;;;;;;;8.60;99.90;;;;;;5012874;28;19929;-72
2022/03/30 10:14:35;;;;;;;;;;;8.60;99.90;;;;;;5014263;28;20063;-72
2022/03/30 10:17:00;;;;;;;;;;;8.60;99.90;;;;;;4979951;28;19925;-72
2022/03/30 10:19:28;;;;;;;;;;;8.90;99.90;;;;;;5014783;28;19932;-72
2022/03/30 10:22:12;;;;;;;;;;;9.00;99.90;;;;;;5011689;28;19968;-72
2022/03/30 10:24:38;;;;;;;;;;;8.90;99.90;;;;;;5007148;28;20373;-71
2022/03/30 10:27:03;;;;;;;;;;;8.90;99.90;;;;;;5012691;28;19925;-72
2022/03/30 10:29:30;;;;;;;;;;;9.00;99.90;;;;;;5014869;28;20274;-72
2022/03/30 10:32:12;;;;;;;;;;;9.10;99.90;;;;;;5010400;28;20370;-73
2022/03/30 10:34:50;;;;;;;;;;;9.40;99.90;;;;;;5004890;28;20170;-73
2022/03/30 10:37:23;;;;;;;;;;;9.40;99.90;;;;;;4995805;28;19932;-75
2022/03/30 10:40:02;;;;;;;;;;;9.20;99.90;;;;;;5010819;28;19973;-72
2022/03/30 10:42:50;;;;;;;;;;;9.10;99.90;;;;;;5011189;28;19925;-73
2022/03/30 10:45:28;;;;;;;;;;;9.20;99.90;;;;;;4995870;28;20311;-72
2022/03/30 10:48:06;;;;;;;;;;;9.30;99.90;;;;;;5013234;28;20024;-72
2022/03/30 10:50:35;;;;;;;;;;;9.40;99.90;;;;;;5011620;28;19925;-72
2022/03/30 10:53:01;;;;;;;;;;;9.60;99.90;;;;;;5014981;28;19926;-72
2022/03/30 10:55:27;;;;;;;;;;;9.70;99.90;;;;;;5012545;28;19968;-72
2022/03/30 10:57:57;;;;;;;;;;;9.60;99.90;;;;;;5000550;28;20020;-72
2022/03/30 11:00:24;;;;;;;;;;;9.50;99.90;;;;;;5011769;28;19930;-72
2022/03/30 11:02:50;;;;;;;;;;;9.20;99.90;;;;;;5011141;28;19932;-72
2022/03/30 11:05:16;;;;;;;;;;;9.40;99.90;;;;;;5010757;28;19925;-72
2022/03/30 11:07:42;;;;;;;;;;;9.30;99.90;;;;;;5004693;28;19968;-72
2022/03/30 11:10:16;;;;;;;;;;;9.50;99.90;;;;;;5005392;28;20304;-72
2022/03/30 11:12:58;;;;;;;;;;;9.50;99.90;;;;;;5005126;28;19976;-72
2022/03/30 11:15:23;;;;;;;;;;;9.70;99.90;;;;;;5004794;28;19930;-72
2022/03/30 11:17:49;;;;;;;;;;;9.70;99.90;;;;;;5005501;28;20285;-72
2022/03/30 11:20:16;;;;;;;;;;;10.00;99.90;;;;;;5003547;28;20016;-72
2022/03/30 11:22:44;;;;;;;;;;;10.00;99.90;;;;;;5004264;28;19926;-72
2022/03/30 11:25:19;;;;;;;;;;;9.90;99.90;;;;;;5003874;28;19934;-72
2022/03/30 11:28:04;;;;;;;;;;;10.00;99.90;;;;;;5004533;28;19932;-72
2022/03/30 11:30:37;;;;;;;;;;;10.00;99.90;;;;;;5008419;28;19932;-72
2022/03/30 11:33:32;;;;;;;;;;;10.00;99.90;;;;;;5009110;28;20661;-72
2022/03/30 11:35:58;;;;;;;;;;;10.10;99.90;;;;;;5007640;28;19929;-72
2022/03/30 11:38:26;;;;;;;;;;;10.00;99.90;;;;;;5011969;28;19965;-72
2022/03/30 11:40:57;;;;;;;;;;;9.70;99.90;;;;;;5010146;28;19925;-74
2022/03/30 11:43:23;;;;;;;;;;;9.70;99.90;;;;;;5010149;28;19933;-73
2022/03/30 11:45:50;;;;;;;;;;;9.50;99.90;;;;;;5010226;28;19932;-71
2022/03/30 11:48:16;;;;;;;;;;;9.60;99.90;;;;;;5012344;28;20480;-74
2022/03/30 11:50:50;;;;;;;;;;;9.80;99.90;;;;;;5010429;28;19925;-72
2022/03/30 11:53:21;;;;;;;;;;;9.30;99.90;;;;;;5011614;28;19932;-72
2022/03/30 11:55:53;;;;;;;;;;;9.20;99.90;;;;;;5009442;28;19960;-74
2022/03/30 11:58:27;;;;;;;;;;;9.20;99.90;;;;;;4989896;28;19972;-73
2022/03/30 12:00:53;;;;;;;;;;;9.10;99.90;;;;;;5005243;28;19932;-72
2022/03/30 12:03:19;;;;;;;;;;;9.40;99.90;;;;;;5012194;28;19944;-72
2022/03/30 12:05:46;;;;;;;;;;;9.40;99.90;;;;;;4997288;28;19932;-71
2022/03/30 12:08:12;;;;;;;;;;;9.30;99.90;;;;;;5010949;28;19932;-76
2022/03/30 12:10:38;;;;;;;;;;;9.10;98.60;;;;;;5008807;28;19996;-74
2022/03/30 12:13:04;;;;;;;;;;;9.00;99.50;;;;;;5012204;28;20480;-73
2022/03/30 12:15:29;;;;;;;;;;;9.00;99.60;;;;;;5011889;28;19929;-73
2022/03/30 12:17:56;;;;;;;;;;;8.90;99.90;;;;;;5010619;28;20004;-74
2022/03/30 12:20:22;;;;;;;;;;;8.70;99.90;;;;;;5009499;28;19955;-73
2022/03/30 12:22:53;;;;;;;;;;;8.50;99.90;;;;;;5009874;28;20417;-74
2022/03/30 12:25:18;;;;;;;;;;;8.60;99.90;;;;;;5008903;28;19926;-73
2022/03/30 12:27:44;;;;;;;;;;;8.60;99.90;;;;;;4994717;28;19943;-73
2022/03/30 12:30:10;;;;;;;;;;;8.70;99.90;;;;;;5011018;28;19932;-73
2022/03/30 12:32:35;;;;;;;;;;;8.90;99.90;;;;;;5011836;28;19930;-73
2022/03/30 12:35:11;;;;;;;;;;;9.00;99.90;;;;;;5011515;28;20384;-73
2022/03/30 12:37:37;;;;;;;;;;;9.10;99.90;;;;;;5011530;28;20293;-73
2022/03/30 12:40:06;;;;;;;;;;;9.10;99.90;;;;;;5011782;28;20031;-73
2022/03/30 12:42:33;;;;;;;;;;;9.20;99.90;;;;;;5009659;28;20371;-73
2022/03/30 12:45:14;;;;;;;;;;;9.30;99.90;;;;;;5005683;28;19979;-73
2022/03/30 12:47:51;;;;;;;;;;;9.30;99.90;;;;;;5004585;28;19933;-72
2022/03/30 12:50:23;;;;;;;;;;;9.50;99.90;;;;;;5004337;28;19972;-72
2022/03/30 12:52:51;;;;;;;;;;;9.40;99.90;;;;;;5003802;28;20128;-73
2022/03/30 12:55:16;;;;;;;;;;;9.10;99.80;;;;;;5008953;28;19925;-73
2022/03/30 12:57:52;;;;;;;;;;;9.30;99.90;;;;;;5010278;28;19932;-73
2022/03/30 13:00:18;;;;;;;;;;;9.10;99.90;;;;;;5011793;28;19976;-73
2022/03/30 13:02:44;;;;;;;;;;;9.00;99.90;;;;;;5009346;28;19925;-73
2022/03/30 13:05:20;;;;;;;;;;;9.10;99.90;;;;;;5001803;28;20359;-73
2022/03/30 13:07:50;;;;;;;;;;;9.20;99.90;;;;;;5004947;28;20303;-73
2022/03/30 13:10:18;;;;;;;;;;;9.30;99.90;;;;;;4998386;28;19984;-73
2022/03/30 13:12:44;;;;;;;;;;;9.10;99.90;;;;;;4996603;28;19929;-73
2022/03/30 13:15:13;;;;;;;;;;;9.30;99.90;;;;;;5001545;28;19948;-72
2022/03/30 13:17:54;;;;;;;;;;;9.30;99.10;;;;;;4998008;28;19932;-73
2022/03/30 13:20:20;;;;;;;;;;;9.50;99.10;;;;;;4998563;28;19937;-73
2022/03/30 13:22:55;;;;;;;;;;;9.60;97.40;;;;;;4996441;28;19934;-72
2022/03/30 13:25:28;;;;;;;;;;;9.60;97.40;;;;;;5005082;28;19993;-73
2022/03/30 13:27:54;;;;;;;;;;;9.90;98.00;;;;;;5001977;28;19949;-72
2022/03/30 13:30:21;;;;;;;;;;;10.00;95.30;;;;;;4999406;28;19929;-73
2022/03/30 13:32:47;;;;;;;;;;;9.80;93.90;;;;;;5011420;28;20003;-75
2022/03/30 13:35:12;;;;;;;;;;;9.90;91.80;;;;;;5015879;28;19929;-75
2022/03/30 13:37:38;;;;;;;;;;;9.90;90.70;;;;;;4998317;28;20412;-74
2022/03/30 13:40:04;;;;;;;;;;;10.00;92.40;;;;;;5012289;28;19937;-75
2022/03/30 13:42:30;;;;;;;;;;;9.70;91.60;;;;;;4971016;28;20017;-72
2022/03/30 13:44:56;;;;;;;;;;;9.50;93.10;;;;;;5012316;28;20049;-71
2022/03/30 13:47:22;;;;;;;;;;;9.40;93.80;;;;;;5012489;28;19933;-72
2022/03/30 13:49:47;;;;;;;;;;;9.40;97.30;;;;;;5011376;28;20285;-71
2022/03/30 13:52:17;;;;;;;;;;;9.40;97.30;;;;;;5015097;28;19948;-71
2022/03/30 13:54:43;;;;;;;;;;;9.60;98.10;;;;;;5013372;28;19940;-71
2022/03/30 13:57:08;;;;;;;;;;;9.80;96.90;;;;;;5014062;28;21774;-71
2022/03/30 13:59:34;;;;;;;;;;;9.80;97.20;;;;;;5012011;28;19926;-71
2022/03/30 14:01:59;;;;;;;;;;;9.90;95.60;;;;;;5012495;28;20365;-71
2022/03/30 14:04:25;;;;;;;;;;;9.70;97.10;;;;;;5011423;28;19948;-71
2022/03/30 14:06:51;;;;;;;;;;;9.60;94.70;;;;;;5009422;28;19925;-71
2022/03/30 14:09:16;;;;;;;;;;;9.70;95.90;;;;;;5012207;28;19980;-71
2022/03/30 14:11:42;;;;;;;;;;;9.80;95.30;;;;;;5011533;28;19925;-71
2022/03/30 14:14:07;;;;;;;;;;;9.90;96.50;;;;;;5013477;28;19934;-71
2022/03/30 14:16:33;;;;;;;;;;;9.80;95.90;;;;;;5013031;28;19965;-73
2022/03/30 14:18:58;;;;;;;;;;;9.70;94.60;;;;;;5012920;28;20349;-72
2022/03/30 14:21:24;;;;;;;;;;;9.60;94.10;;;;;;5009922;28;19934;-71
2022/03/30 14:23:50;;;;;;;;;;;9.60;93.90;;;;;;4996823;28;19932;-72
2022/03/30 14:26:15;;;;;;;;;;;9.60;91.60;;;;;;5011034;28;20369;-72
2022/03/30 14:28:41;;;;;;;;;;;9.40;91.80;;;;;;5008907;28;19932;-72
2022/03/30 14:31:06;;;;;;;;;;;9.40;91.50;;;;;;5011109;28;20292;-72
2022/03/30 14:33:32;;;;;;;;;;;9.30;90.30;;;;;;5009343;28;20393;-72
2022/03/30 14:35:59;;;;;;;;;;;9.30;91.40;;;;;;5014296;28;20372;-72
2022/03/30 14:38:25;;;;;;;;;;;9.50;92.90;;;;;;5017841;28;19926;-71